Azle, TX (76020)

6:10 AM CDT on August 30, 2015 (GMT -0500)
South of 199 | | Change Station
CLOSE
Current Station
Personal Weather Station
Location: Sanctuary, TX
Elevation: 800 ft
Nearby Weather Stations

Elev 800 ft 32.91 °N, 97.59 °W | Updated 5 seconds ago

Mostly Cloudy
Mostly Cloudy
68.9 °F
Feels Like 68.9 °F
N
0.0
Wind Variable Wind from North
Gusts 0.0 mph

Today
High -- | Low -- °F
--% Chance of Precip.
Yesterday
High -- | Low -- °F
Precip. -- in
7:03 AM 7:57 PM
Full, 99% visible
Pressure 29.98 in
Visibility 10.0 miles
Clouds Scattered Clouds 10000 ft
Mostly Cloudy 25000 ft
Dew Point 64 °F
Humidity 83%
Rainfall 0.00 in
Snow Depth Not available.
UV 0 out of 12
Pollen 8.50 out of 12
Air Quality Not available.
Flu Activity Not available.
SPECI KNFW 301055Z 20003KT 10SM SCT100 BKN250 26/18 A2998 RMK AO2 T02560183
Pressure 29.98 in
Visibility 10.0 miles
Clouds Scattered Clouds 10000 ft
Mostly Cloudy 25000 ft
Dew Point 64 °F
Humidity 83%
Rainfall 0.00 in
Snow Depth Not available.
UV 0 out of 12
Pollen 8.50 out of 12
Air Quality Not available.
Flu Activity Not available.
SPECI KNFW 301055Z 20003KT 10SM SCT100 BKN250 26/18 A2998 RMK AO2 T02560183

10-Day Weather Forecast

×

Almanac

Astronomy

Aug. 30, 2015 Rise Set
Actual Time
Civil Twilight
Nautical Twilight
Astronomical Twilight
Moon
Length of Visible Light
Length of Day
Tomorrow will be .
, % of the Moon is Illuminated

Today's Extremes

State Highs State Lows

Community

WunderPhotos

Upload Photos

1,850,925 photos uploaded!

WunderBlogs® & News

Nearby

Air Quality

  Air Quality AQ Index Pollutant
Not available.

Snow Depth

Station Depth Elevation

Earthquake Activity

City Distance Mag. Time & Date
Minimum magnitude displayed is 2.5.

Coastal Water Temperatures

Place Temperature

Stations

Nearby Weather Stations

Station Location Temp. Windchill Dew Point Humidity Wind Precip. Elev Updated Type